Keno, OR (97627)

10:58 PM PDT on August 17, 2017 (GMT -0700)
Klamath Falls International | | Change Station

Elev 4094 ft 42.16 °N, 121.73 °W | Updated 5 minutes ago

Clear
Clear
68 °F
Feels Like 68 °F
N
4
Wind Variable Wind from North

Today
High -- | Low -- °F
--% Chance of Precip.
Yesterday
High -- | Low -- °F
Precip. -- in
Pressure 30.06 in
Visibility 7.0 miles
Clouds Mostly Cloudy 3500 ft
Dew Point 50 °F
Humidity 52%
Rainfall 0.00 in
Snow Depth Not available.
6:17 AM 8:04 PM
Waning Crescent, 16% visible
METAR KLMT 180553Z 01003KT 7SM FU BKN035 20/10 A3019 RMK AO2 SLP178 T02000100 10311 20178 51012
Pressure 30.06 in
Visibility 7.0 miles
Clouds Mostly Cloudy 3500 ft
Dew Point 50 °F
Humidity 52%
Rainfall 0.00 in
Snow Depth Not available.
6:17 AM 8:04 PM
Waning Crescent, 16% visible
METAR KLMT 180553Z 01003KT 7SM FU BKN035 20/10 A3019 RMK AO2 SLP178 T02000100 10311 20178 51012

Get Severe Weather Alerts

Thanks for signing up!

Be on the lookout for a verification email in your inbox.

You'll start receiving the daily forecast at 6 AM.

×

10-Day Weather Forecast

Almanac

Astronomy

Aug. 17, 2017 Rise Set
Actual Time
Civil Twilight
Nautical Twilight
Astronomical Twilight
Moon
Length of Visible Light
Length of Day
Tomorrow will be .
, % of the Moon is Illuminated

Today's Extremes

State Highs State Lows

Community

WunderPhotos

Category 6

Welcome to Category 6. This is the collective home for Weather Underground's featured writeups by Dr. Jeff Masters (right), Bob Henson (left), Chris Burt, and other regular contributors.

Nearby

Air Quality

  Air Quality AQ Index Pollutant
Not available.

Snow Depth

Station Depth Elevation

Earthquake Activity

City Distance Mag. Time & Date
Minimum magnitude displayed is 2.5.

Coastal Water Temperatures

Place Temperature

Stations

Nearby Weather Stations

Station Location Temp. Windchill Dew Point Humidity Wind Precip. Elev Updated Type
                   

Watches & Warnings

There are currently no watches in effect.